createdAt,value
2019-03-27T00:01:03.923Z,11.40
2019-03-27T00:04:01.058Z,12.00
2019-03-27T00:06:58.181Z,12.20
2019-03-27T00:09:54.336Z,12.17
2019-03-27T00:12:51.863Z,12.93
2019-03-27T00:15:47.824Z,12.87
2019-03-27T00:18:45.009Z,14.67
2019-03-27T00:21:41.100Z,14.97
2019-03-27T00:24:38.453Z,12.50
2019-03-27T00:27:35.922Z,12.57
2019-03-27T00:30:32.350Z,12.30
2019-03-27T00:33:37.597Z,12.83
2019-03-27T00:36:33.716Z,13.13
2019-03-27T00:39:30.799Z,13.00
2019-03-27T00:42:27.978Z,12.70
2019-03-27T00:45:27.255Z,15.40
2019-03-27T00:48:23.304Z,13.90
2019-03-27T00:51:19.585Z,13.10
2019-03-27T00:54:17.525Z,13.60
2019-03-27T00:57:14.640Z,14.13
2019-03-27T01:00:11.879Z,13.57
2019-03-27T01:03:09.002Z,14.40
2019-03-27T01:06:06.383Z,14.60
2019-03-27T01:09:05.980Z,13.60
2019-03-27T01:12:03.334Z,14.87
2019-03-27T01:15:00.390Z,15.00
2019-03-27T01:17:56.449Z,13.30
2019-03-27T01:20:53.577Z,15.07
2019-03-27T01:23:50.517Z,14.40
2019-03-27T01:26:47.878Z,15.67
2019-03-27T01:29:43.906Z,14.57
2019-03-27T01:32:41.226Z,14.50
2019-03-27T01:35:38.314Z,14.50
2019-03-27T01:38:34.444Z,14.63
2019-03-27T01:41:31.766Z,15.00
2019-03-27T01:44:28.876Z,15.03
2019-03-27T01:47:26.099Z,15.87
2019-03-27T01:50:21.443Z,14.90
2019-03-27T01:53:19.412Z,15.43
2019-03-27T01:56:17.187Z,15.43
2019-03-27T01:59:14.619Z,14.90
2019-03-27T02:02:11.689Z,14.97
2019-03-27T02:05:09.028Z,16.40
2019-03-27T02:08:05.848Z,15.80
2019-03-27T02:11:01.745Z,16.32
2019-03-27T02:13:59.892Z,17.50
2019-03-27T02:16:56.235Z,17.17
2019-03-27T02:19:52.073Z,17.63
2019-03-27T02:22:49.596Z,16.10
2019-03-27T02:25:45.633Z,17.80
2019-03-27T02:28:43.009Z,16.60
2019-03-27T02:31:39.120Z,17.00
2019-03-27T02:34:36.277Z,17.17
2019-03-27T02:37:32.422Z,16.30
2019-03-27T02:40:29.663Z,18.13
2019-03-27T02:43:25.896Z,15.43
2019-03-27T02:46:24.883Z,18.50
2019-03-27T02:49:20.590Z,17.13
2019-03-27T02:52:16.948Z,17.60
2019-03-27T02:55:15.272Z,17.50
2019-03-27T02:58:12.119Z,17.57
2019-03-27T03:01:10.204Z,17.97
2019-03-27T03:04:08.278Z,18.90
2019-03-27T03:07:04.938Z,16.90
2019-03-27T03:10:01.209Z,17.82
2019-03-27T03:12:57.817Z,17.73
2019-03-27T03:15:55.722Z,18.60
2019-03-27T03:18:53.137Z,19.80
2019-03-27T03:21:50.218Z,18.27
2019-03-27T03:24:47.269Z,18.30
2019-03-27T03:27:44.532Z,17.40
2019-03-27T03:30:40.185Z,19.80
2019-03-27T03:33:37.201Z,18.10
2019-03-27T03:36:35.422Z,19.10
2019-03-27T03:39:31.145Z,18.63
2019-03-27T03:42:27.885Z,18.90
2019-03-27T03:45:24.526Z,18.53
2019-03-27T03:48:21.438Z,19.57
2019-03-27T03:51:17.498Z,18.70
2019-03-27T03:54:14.713Z,20.53
2019-03-27T03:57:11.776Z,20.00
2019-03-27T04:00:08.010Z,18.87
2019-03-27T04:03:06.149Z,18.85
2019-03-27T04:06:04.269Z,20.50
2019-03-27T04:09:01.418Z,18.30
2019-03-27T04:11:56.937Z,18.70
2019-03-27T04:14:53.992Z,20.77
2019-03-27T04:17:50.090Z,19.90
2019-03-27T04:20:47.447Z,20.23
2019-03-27T04:23:43.776Z,20.47
2019-03-27T04:26:41.842Z,20.30
2019-03-27T04:29:37.726Z,20.40
2019-03-27T04:32:34.739Z,19.80
2019-03-27T04:35:32.065Z,19.53
2019-03-27T04:38:28.189Z,20.37
2019-03-27T04:41:25.368Z,20.50
2019-03-27T04:44:21.701Z,21.03
2019-03-27T04:47:31.516Z,20.67
2019-03-27T04:50:15.742Z,21.00
2019-03-27T04:53:12.446Z,21.67
2019-03-27T04:56:08.541Z,22.47
2019-03-27T04:59:06.338Z,20.90
2019-03-27T05:02:02.671Z,20.27
2019-03-27T05:04:59.912Z,21.00
2019-03-27T05:07:57.153Z,21.67
2019-03-27T05:10:53.096Z,21.63
2019-03-27T05:13:50.242Z,20.23
2019-03-27T05:16:47.318Z,20.83
2019-03-27T05:19:44.059Z,21.43
2019-03-27T05:22:41.222Z,21.20
2019-03-27T05:25:37.032Z,21.23
2019-03-27T05:28:34.187Z,22.00
2019-03-27T05:31:31.016Z,21.40
2019-03-27T05:34:28.391Z,21.27
2019-03-27T05:37:25.539Z,22.10
2019-03-27T05:40:22.214Z,20.73
2019-03-27T05:43:19.334Z,21.47
2019-03-27T05:46:17.218Z,21.10
2019-03-27T05:49:14.567Z,20.77
2019-03-27T05:52:10.480Z,20.07
2019-03-27T05:55:07.650Z,21.90
2019-03-27T05:58:05.983Z,22.40
2019-03-27T06:01:03.035Z,23.13
2019-03-27T06:04:00.105Z,21.73
2019-03-27T06:07:00.156Z,21.30
2019-03-27T06:09:56.238Z,22.77
2019-03-27T06:12:53.692Z,21.57
2019-03-27T06:15:49.997Z,19.97
2019-03-27T06:18:47.343Z,19.70
2019-03-27T06:21:43.735Z,22.50
2019-03-27T06:24:40.948Z,21.52
2019-03-27T06:27:37.900Z,22.63
2019-03-27T06:30:34.927Z,22.55
2019-03-27T06:33:31.870Z,22.60
2019-03-27T06:36:27.940Z,22.25
2019-03-27T06:39:25.369Z,22.33
2019-03-27T06:42:26.686Z,23.27
2019-03-27T06:45:24.065Z,22.60
2019-03-27T06:48:26.347Z,22.60
2019-03-27T06:51:18.475Z,21.47
2019-03-27T06:54:14.584Z,22.33
2019-03-27T06:57:12.679Z,22.73
2019-03-27T07:00:08.508Z,22.17
2019-03-27T07:03:05.228Z,22.57
2019-03-27T07:06:02.533Z,21.93
2019-03-27T07:09:01.607Z,22.37
2019-03-27T07:11:58.870Z,21.77
2019-03-27T07:14:56.230Z,23.27
2019-03-27T07:17:54.544Z,22.90
2019-03-27T07:20:52.850Z,22.95
2019-03-27T07:23:48.700Z,22.93
2019-03-27T07:26:45.794Z,24.60
2019-03-27T07:29:42.026Z,23.70
2019-03-27T07:32:39.209Z,22.30
2019-03-27T07:35:35.467Z,21.50
2019-03-27T07:38:32.910Z,22.07
2019-03-27T07:41:30.158Z,22.80
2019-03-27T07:44:26.004Z,22.30
2019-03-27T07:47:23.002Z,22.77
2019-03-27T07:50:20.143Z,23.23
2019-03-27T07:53:16.385Z,22.53
2019-03-27T07:56:13.551Z,23.30
2019-03-27T07:59:10.929Z,22.47
2019-03-27T08:02:08.459Z,22.93
2019-03-27T08:05:04.321Z,22.50
2019-03-27T08:08:02.382Z,23.03
2019-03-27T08:10:59.768Z,21.30
2019-03-27T08:13:57.112Z,21.77
2019-03-27T08:16:53.448Z,21.85
2019-03-27T08:19:51.005Z,21.33
2019-03-27T08:22:49.402Z,20.70
2019-03-27T08:25:44.868Z,19.37
2019-03-27T08:28:42.764Z,20.23
2019-03-27T08:31:38.586Z,20.00
2019-03-27T08:34:35.509Z,23.43
2019-03-27T08:37:31.870Z,20.10
2019-03-27T08:40:30.013Z,19.63
2019-03-27T08:43:28.078Z,20.30
2019-03-27T08:46:24.148Z,19.03
2019-03-27T08:49:22.699Z,18.80
2019-03-27T08:52:18.557Z,19.13
2019-03-27T08:55:15.765Z,18.10
2019-03-27T08:58:11.986Z,18.80
2019-03-27T09:01:11.637Z,17.10
2019-03-27T09:04:07.586Z,16.60
2019-03-27T09:07:04.369Z,15.03
2019-03-27T09:10:02.526Z,15.40
2019-03-27T09:12:58.909Z,15.27
2019-03-27T09:15:55.184Z,15.45
2019-03-27T09:18:52.419Z,14.17
2019-03-27T09:21:49.442Z,14.53
2019-03-27T09:24:46.640Z,13.78
2019-03-27T09:27:41.828Z,14.80
2019-03-27T09:30:39.514Z,12.33
2019-03-27T09:33:36.555Z,15.80
2019-03-27T09:36:32.544Z,12.97
2019-03-27T09:39:32.215Z,13.53
2019-03-27T09:42:28.572Z,11.80
2019-03-27T09:45:25.806Z,11.28
2019-03-27T09:48:21.912Z,12.03
2019-03-27T09:51:19.663Z,30.33
2019-03-27T09:54:16.072Z,11.20
2019-03-27T09:57:13.130Z,11.10
2019-03-27T10:00:11.176Z,11.20
2019-03-27T10:03:08.087Z,12.00
2019-03-27T10:06:05.223Z,10.47
2019-03-27T10:09:02.292Z,10.50
2019-03-27T10:11:59.631Z,10.80
2019-03-27T10:14:57.031Z,11.80
2019-03-27T10:17:53.984Z,11.13
2019-03-27T10:20:51.578Z,12.00
2019-03-27T10:23:47.874Z,11.60
2019-03-27T10:26:44.854Z,11.30
2019-03-27T10:29:40.456Z,12.00
2019-03-27T10:32:37.569Z,11.70
2019-03-27T10:35:33.806Z,13.30
2019-03-27T10:38:31.190Z,10.70
2019-03-27T10:41:29.284Z,11.38
2019-03-27T10:44:25.551Z,10.57
2019-03-27T10:47:22.876Z,10.43
2019-03-27T10:50:18.956Z,10.27
2019-03-27T10:53:16.338Z,10.40
2019-03-27T10:56:12.228Z,9.73
2019-03-27T10:59:09.625Z,10.13
2019-03-27T11:02:06.774Z,10.90
2019-03-27T11:05:04.235Z,12.40
2019-03-27T11:08:00.316Z,11.30
2019-03-27T11:10:58.385Z,10.40
2019-03-27T11:13:55.546Z,12.50
2019-03-27T11:16:53.753Z,11.00
2019-03-27T11:19:50.485Z,11.33
2019-03-27T11:22:45.932Z,12.00
2019-03-27T11:25:43.036Z,11.40
2019-03-27T11:28:40.301Z,9.83
2019-03-27T11:31:39.684Z,10.40
2019-03-27T11:34:35.632Z,10.20
2019-03-27T11:37:32.710Z,10.00
2019-03-27T11:40:28.802Z,11.03
2019-03-27T11:43:25.840Z,10.17
2019-03-27T11:46:23.109Z,10.27
2019-03-27T11:49:19.204Z,10.30
2019-03-27T11:52:16.815Z,9.80
2019-03-27T11:55:12.717Z,9.83
2019-03-27T11:58:10.084Z,9.17
2019-03-27T12:01:06.313Z,9.33
2019-03-27T12:04:03.409Z,10.00
2019-03-27T12:06:59.717Z,9.25
2019-03-27T12:09:59.022Z,9.45
2019-03-27T12:12:55.120Z,9.07
2019-03-27T12:15:59.877Z,9.20
2019-03-27T12:18:58.060Z,9.00
2019-03-27T12:21:56.096Z,8.63
2019-03-27T12:24:53.183Z,8.73
2019-03-27T12:27:50.346Z,8.88
2019-03-27T12:30:48.919Z,9.33
2019-03-27T12:33:45.925Z,8.03
2019-03-27T12:36:42.871Z,8.57
2019-03-27T12:39:40.922Z,8.30
2019-03-27T12:42:37.757Z,7.53
2019-03-27T12:45:35.064Z,7.77
2019-03-27T12:48:31.073Z,7.37
2019-03-27T12:51:28.431Z,8.40
2019-03-27T12:54:24.437Z,8.17
2019-03-27T12:57:21.482Z,8.70
2019-03-27T13:00:17.153Z,8.50
2019-03-27T13:03:14.789Z,8.17
2019-03-27T13:06:13.102Z,7.97
2019-03-27T13:09:08.921Z,8.00
2019-03-27T13:12:08.209Z,8.70
2019-03-27T13:15:04.252Z,8.20
2019-03-27T13:18:01.131Z,7.20
2019-03-27T13:20:58.288Z,8.00
2019-03-27T13:23:54.552Z,8.50
2019-03-27T13:26:51.802Z,7.90
2019-03-27T13:29:48.852Z,7.60
2019-03-27T13:32:45.889Z,7.53
2019-03-27T13:35:43.026Z,7.33
2019-03-27T13:38:39.048Z,7.17
2019-03-27T13:41:36.093Z,8.17
2019-03-27T13:44:37.358Z,7.40
2019-03-27T13:47:31.232Z,8.63
2019-03-27T13:50:27.392Z,7.50
2019-03-27T13:53:24.647Z,7.83
2019-03-27T13:56:20.181Z,8.37
2019-03-27T13:59:17.453Z,7.40
2019-03-27T14:02:13.152Z,8.00
2019-03-27T14:05:10.416Z,7.10
2019-03-27T14:08:06.592Z,6.87
2019-03-27T14:11:04.692Z,7.10
2019-03-27T14:14:10.690Z,7.73
2019-03-27T14:16:57.470Z,7.87
2019-03-27T14:19:52.870Z,8.30
2019-03-27T14:22:50.067Z,7.50
2019-03-27T14:25:47.404Z,7.50
2019-03-27T14:28:43.537Z,7.60
2019-03-27T14:31:40.779Z,8.23
2019-03-27T14:34:36.847Z,8.10
2019-03-27T14:37:35.281Z,7.77
2019-03-27T14:40:31.355Z,7.90
2019-03-27T14:43:28.670Z,6.70
2019-03-27T14:46:25.407Z,7.33
2019-03-27T14:49:22.571Z,7.80
2019-03-27T14:52:19.695Z,8.17
2019-03-27T14:55:15.847Z,7.60
2019-03-27T14:58:13.726Z,6.73
2019-03-27T15:01:11.053Z,6.90
2019-03-27T15:04:09.270Z,6.15
2019-03-27T15:07:05.418Z,6.70
2019-03-27T15:10:02.476Z,7.63
2019-03-27T15:12:59.401Z,6.00
2019-03-27T15:15:57.330Z,6.90
2019-03-27T15:18:52.704Z,7.00
2019-03-27T15:21:49.227Z,6.80
2019-03-27T15:24:47.268Z,6.57
2019-03-27T15:27:44.386Z,7.20
2019-03-27T15:30:41.681Z,6.80
2019-03-27T15:33:38.942Z,6.70
2019-03-27T15:36:35.901Z,6.72
2019-03-27T15:39:32.217Z,6.92
2019-03-27T15:42:29.394Z,6.60
2019-03-27T15:45:27.669Z,6.62
2019-03-27T15:48:22.670Z,7.23
2019-03-27T15:51:19.830Z,6.43
2019-03-27T15:54:15.873Z,7.30
2019-03-27T15:57:14.316Z,6.87
2019-03-27T16:00:10.424Z,6.67
2019-03-27T16:03:07.476Z,6.27
2019-03-27T16:06:04.584Z,6.90
2019-03-27T16:09:01.969Z,6.37
2019-03-27T16:11:59.089Z,9.60
2019-03-27T16:14:56.805Z,9.60
2019-03-27T16:17:53.926Z,9.33
2019-03-27T16:20:49.988Z,7.43
2019-03-27T16:23:47.040Z,8.30
2019-03-27T16:26:44.106Z,7.90
2019-03-27T16:29:42.315Z,7.43
2019-03-27T16:32:38.073Z,8.13
2019-03-27T16:35:36.043Z,9.33
2019-03-27T16:38:33.050Z,8.43
2019-03-27T16:41:28.437Z,9.90
2019-03-27T16:44:26.487Z,9.40
2019-03-27T16:47:22.679Z,10.00
2019-03-27T16:50:19.819Z,10.73
2019-03-27T16:53:16.111Z,10.33
2019-03-27T16:56:14.663Z,10.67
2019-03-27T16:59:10.664Z,9.88
2019-03-27T17:02:07.902Z,11.90
2019-03-27T17:05:05.081Z,11.57
2019-03-27T17:08:01.314Z,10.90
2019-03-27T17:10:59.138Z,11.27
2019-03-27T17:13:55.416Z,11.27
2019-03-27T17:16:53.110Z,11.43
2019-03-27T17:19:49.231Z,11.53
2019-03-27T17:22:46.347Z,12.30
2019-03-27T17:25:43.458Z,11.65
2019-03-27T17:28:40.965Z,11.60
2019-03-27T17:31:38.123Z,12.53
2019-03-27T17:34:34.155Z,12.50
2019-03-27T17:37:33.960Z,13.07
2019-03-27T17:40:30.368Z,11.30
2019-03-27T17:43:27.441Z,11.63
2019-03-27T17:46:24.492Z,11.97
2019-03-27T17:49:21.881Z,11.50
2019-03-27T17:52:17.839Z,11.80
2019-03-27T17:55:14.924Z,11.60
2019-03-27T17:58:11.849Z,10.70
2019-03-27T18:01:09.334Z,11.40
2019-03-27T18:04:07.769Z,13.10
2019-03-27T18:07:05.083Z,14.30
2019-03-27T18:10:02.371Z,14.57
2019-03-27T18:13:03.141Z,13.43
2019-03-27T18:16:00.458Z,12.87
2019-03-27T18:19:01.307Z,12.27
2019-03-27T18:22:07.524Z,12.13
2019-03-27T18:24:59.817Z,13.03
2019-03-27T18:27:58.609Z,11.57
2019-03-27T18:30:55.219Z,12.93
2019-03-27T18:33:52.458Z,13.50
2019-03-27T18:36:49.003Z,12.33
2019-03-27T18:39:45.475Z,12.60
2019-03-27T18:42:42.932Z,12.90
2019-03-27T18:45:40.225Z,12.53
2019-03-27T18:48:38.560Z,12.43
2019-03-27T18:51:36.035Z,11.93
2019-03-27T18:54:33.818Z,11.43
2019-03-27T18:57:36.466Z,13.75
2019-03-27T19:00:32.978Z,12.47
2019-03-27T19:03:36.215Z,11.60
2019-03-27T19:06:27.518Z,12.07
2019-03-27T19:09:24.745Z,12.30
2019-03-27T19:12:23.342Z,11.50
2019-03-27T19:15:19.303Z,11.57
2019-03-27T19:18:16.833Z,12.60
2019-03-27T19:21:17.342Z,12.00
2019-03-27T19:24:16.817Z,12.63
2019-03-27T19:27:10.819Z,12.23
2019-03-27T19:30:08.245Z,12.73
2019-03-27T19:33:06.799Z,12.33
2019-03-27T19:36:02.998Z,13.70
2019-03-27T19:39:05.091Z,14.20
2019-03-27T19:42:02.728Z,12.60
2019-03-27T19:45:03.954Z,12.80
2019-03-27T19:48:09.447Z,12.70
2019-03-27T19:51:06.578Z,13.10
2019-03-27T19:54:06.824Z,12.87
2019-03-27T19:57:05.608Z,14.27
2019-03-27T20:00:03.069Z,16.17
2019-03-27T20:03:06.906Z,17.73
2019-03-27T20:06:16.261Z,17.63
2019-03-27T20:09:22.281Z,15.53
2019-03-27T20:12:18.324Z,14.17
2019-03-27T20:15:41.974Z,13.77
2019-03-27T20:18:34.753Z,15.00
2019-03-27T20:21:32.231Z,13.43
2019-03-27T20:24:40.378Z,13.17
2019-03-27T20:27:25.665Z,13.60
2019-03-27T20:30:26.981Z,13.60
2019-03-27T20:33:29.297Z,14.40
2019-03-27T20:36:27.720Z,13.93
2019-03-27T20:39:24.354Z,13.47
2019-03-27T20:42:20.828Z,12.40
2019-03-27T20:45:22.815Z,12.83
2019-03-27T20:48:19.794Z,14.10
2019-03-27T20:51:24.558Z,13.90
2019-03-27T20:54:23.739Z,14.50
2019-03-27T20:57:20.916Z,12.80
2019-03-27T21:00:18.321Z,13.80
2019-03-27T21:03:15.899Z,13.90
2019-03-27T21:06:12.413Z,14.10
2019-03-27T21:09:10.772Z,15.20
2019-03-27T21:12:12.994Z,14.17
2019-03-27T21:15:09.329Z,14.03
2019-03-27T21:18:06.785Z,14.47
2019-03-27T21:21:04.148Z,14.30
2019-03-27T21:24:02.947Z,14.70
2019-03-27T21:26:59.584Z,13.60
2019-03-27T21:29:58.904Z,15.00
2019-03-27T21:32:55.483Z,13.77
2019-03-27T21:35:59.416Z,14.07
2019-03-27T21:38:56.077Z,14.33
2019-03-27T21:41:53.370Z,13.70
2019-03-27T21:44:50.655Z,14.60
2019-03-27T21:47:47.094Z,14.53
2019-03-27T21:50:45.465Z,14.37
2019-03-27T21:53:42.835Z,14.80
2019-03-27T21:56:39.241Z,15.43
2019-03-27T21:59:37.741Z,15.67
2019-03-27T22:02:34.103Z,16.87
2019-03-27T22:05:32.127Z,16.05
2019-03-27T22:08:28.299Z,15.30
2019-03-27T22:11:26.751Z,14.73
2019-03-27T22:14:23.018Z,13.50
2019-03-27T22:17:20.416Z,14.00
2019-03-27T22:20:18.609Z,14.67
2019-03-27T22:23:15.006Z,14.33
2019-03-27T22:26:11.632Z,14.23
2019-03-27T22:29:07.885Z,15.40
2019-03-27T22:32:06.934Z,13.33
2019-03-27T22:35:02.328Z,13.33
2019-03-27T22:38:00.166Z,14.57
2019-03-27T22:40:56.270Z,13.53
2019-03-27T22:43:53.527Z,14.53
2019-03-27T22:46:50.696Z,14.78
2019-03-27T22:49:47.032Z,13.10
2019-03-27T22:52:44.415Z,14.63
2019-03-27T22:55:49.910Z,14.27
2019-03-27T22:58:37.968Z,14.58
2019-03-27T23:01:36.258Z,14.80
2019-03-27T23:04:33.434Z,14.20
2019-03-27T23:07:30.673Z,14.30
2019-03-27T23:10:27.715Z,12.80
2019-03-27T23:13:26.309Z,13.97
2019-03-27T23:16:22.436Z,13.27
2019-03-27T23:19:19.486Z,13.00
2019-03-27T23:22:16.640Z,13.72
2019-03-27T23:25:14.625Z,13.95
2019-03-27T23:28:11.245Z,14.80
2019-03-27T23:31:08.883Z,12.73
2019-03-27T23:34:06.083Z,13.40
2019-03-27T23:37:02.561Z,13.30
2019-03-27T23:40:00.468Z,13.80
2019-03-27T23:42:57.444Z,13.80
2019-03-27T23:45:54.790Z,13.87
2019-03-27T23:48:52.151Z,14.07
2019-03-27T23:51:50.434Z,13.70
2019-03-27T23:54:47.765Z,13.73
2019-03-27T23:57:43.623Z,13.27
